sensor_id;sensor_type;location;lat;lon;timestamp;pressure;altitude;pressure_sealevel;temperature;humidity
12360;BME280;6244;51.460;7.090;2023-03-18T00:01:05;99889.09;;;11.53;68.93
12360;BME280;6244;51.460;7.090;2023-03-18T00:06:05;99887.31;;;11.53;68.92
12360;BME280;6244;51.460;7.090;2023-03-18T00:11:02;99881.22;;;11.53;68.67
12360;BME280;6244;51.460;7.090;2023-03-18T00:16:01;99872.72;;;11.49;68.70
12360;BME280;6244;51.460;7.090;2023-03-18T00:20:58;99874.84;;;11.57;68.64
12360;BME280;6244;51.460;7.090;2023-03-18T00:25:56;99885.75;;;11.51;68.43
12360;BME280;6244;51.460;7.090;2023-03-18T00:30:54;99890.81;;;11.54;68.30
12360;BME280;6244;51.460;7.090;2023-03-18T00:35:52;99889.75;;;11.56;68.49
12360;BME280;6244;51.460;7.090;2023-03-18T00:40:50;99899.22;;;11.59;67.88
12360;BME280;6244;51.460;7.090;2023-03-18T00:45:56;99904.78;;;11.54;68.48
12360;BME280;6244;51.460;7.090;2023-03-18T00:50:54;99903.63;;;11.58;67.99
12360;BME280;6244;51.460;7.090;2023-03-18T00:55:51;99889.22;;;11.51;68.32
12360;BME280;6244;51.460;7.090;2023-03-18T01:00:48;99890.06;;;11.52;68.22
12360;BME280;6244;51.460;7.090;2023-03-18T01:05:45;99892.56;;;11.53;68.18
12360;BME280;6244;51.460;7.090;2023-03-18T01:10:43;99884.78;;;11.52;68.25
12360;BME280;6244;51.460;7.090;2023-03-18T01:15:39;99880.19;;;11.55;68.34
12360;BME280;6244;51.460;7.090;2023-03-18T01:20:37;99878.91;;;11.48;68.29
12360;BME280;6244;51.460;7.090;2023-03-18T01:25:33;99898.25;;;11.47;68.08
12360;BME280;6244;51.460;7.090;2023-03-18T01:30:32;99897.81;;;11.53;68.42
12360;BME280;6244;51.460;7.090;2023-03-18T01:35:29;99894.91;;;11.45;68.35
12360;BME280;6244;51.460;7.090;2023-03-18T01:40:26;99892.91;;;11.48;68.53
12360;BME280;6244;51.460;7.090;2023-03-18T01:45:25;99886.38;;;11.41;68.52
12360;BME280;6244;51.460;7.090;2023-03-18T01:50:26;99892.78;;;11.50;68.51
12360;BME280;6244;51.460;7.090;2023-03-18T01:55:26;99894.69;;;11.61;68.01
12360;BME280;6244;51.460;7.090;2023-03-18T02:00:23;99902.38;;;11.64;68.17
12360;BME280;6244;51.460;7.090;2023-03-18T02:05:24;99909.50;;;11.62;68.62
12360;BME280;6244;51.460;7.090;2023-03-18T02:10:24;99905.84;;;11.64;68.65
12360;BME280;6244;51.460;7.090;2023-03-18T02:15:24;99898.59;;;11.68;68.94
12360;BME280;6244;51.460;7.090;2023-03-18T02:20:38;99883.56;;;11.70;68.70
12360;BME280;6244;51.460;7.090;2023-03-18T02:25:47;99885.56;;;11.66;69.10
12360;BME280;6244;51.460;7.090;2023-03-18T02:30:49;99893.66;;;11.63;69.36
12360;BME280;6244;51.460;7.090;2023-03-18T02:35:50;99883.25;;;11.74;69.64
12360;BME280;6244;51.460;7.090;2023-03-18T02:40:48;99886.44;;;11.80;70.04
12360;BME280;6244;51.460;7.090;2023-03-18T02:45:53;99881.78;;;11.58;70.11
12360;BME280;6244;51.460;7.090;2023-03-18T02:50:53;99896.34;;;11.49;71.02
12360;BME280;6244;51.460;7.090;2023-03-18T02:55:50;99899.59;;;11.40;71.21
12360;BME280;6244;51.460;7.090;2023-03-18T03:00:47;99897.72;;;11.42;71.74
12360;BME280;6244;51.460;7.090;2023-03-18T03:06:00;99901.69;;;11.35;71.91
12360;BME280;6244;51.460;7.090;2023-03-18T03:11:14;99907.38;;;11.29;72.40
12360;BME280;6244;51.460;7.090;2023-03-18T03:16:30;99911.44;;;11.20;72.91
12360;BME280;6244;51.460;7.090;2023-03-18T03:21:30;99910.91;;;11.28;73.77
12360;BME280;6244;51.460;7.090;2023-03-18T03:26:27;99923.50;;;11.23;73.68
12360;BME280;6244;51.460;7.090;2023-03-18T03:31:23;99917.41;;;11.22;73.75
12360;BME280;6244;51.460;7.090;2023-03-18T03:36:21;99921.38;;;11.15;73.88
12360;BME280;6244;51.460;7.090;2023-03-18T03:41:19;99914.06;;;10.93;74.45
12360;BME280;6244;51.460;7.090;2023-03-18T03:46:16;99920.06;;;10.95;74.75
12360;BME280;6244;51.460;7.090;2023-03-18T03:51:13;99915.75;;;10.94;75.06
12360;BME280;6244;51.460;7.090;2023-03-18T03:56:10;99934.88;;;10.96;75.09
12360;BME280;6244;51.460;7.090;2023-03-18T04:01:07;99931.88;;;10.88;75.35
12360;BME280;6244;51.460;7.090;2023-03-18T04:06:04;99929.56;;;10.83;75.65
12360;BME280;6244;51.460;7.090;2023-03-18T04:11:02;99937.63;;;10.80;75.89
12360;BME280;6244;51.460;7.090;2023-03-18T04:16:05;99941.25;;;10.78;76.12
12360;BME280;6244;51.460;7.090;2023-03-18T04:21:03;99949.25;;;10.76;76.09
12360;BME280;6244;51.460;7.090;2023-03-18T04:26:00;99960.94;;;10.85;76.18
12360;BME280;6244;51.460;7.090;2023-03-18T04:30:57;99951.94;;;10.89;75.79
12360;BME280;6244;51.460;7.090;2023-03-18T04:35:54;99966.19;;;10.85;76.11
12360;BME280;6244;51.460;7.090;2023-03-18T04:40:52;99967.25;;;10.82;76.02
12360;BME280;6244;51.460;7.090;2023-03-18T04:45:48;99961.78;;;10.85;75.92
12360;BME280;6244;51.460;7.090;2023-03-18T04:50:46;99967.94;;;10.99;75.53
12360;BME280;6244;51.460;7.090;2023-03-18T04:55:42;99965.97;;;11.02;75.60
12360;BME280;6244;51.460;7.090;2023-03-18T05:00:40;99977.69;;;10.97;75.55
12360;BME280;6244;51.460;7.090;2023-03-18T05:05:37;99974.59;;;11.04;75.35
12360;BME280;6244;51.460;7.090;2023-03-18T05:10:34;99973.56;;;11.07;75.12
12360;BME280;6244;51.460;7.090;2023-03-18T05:15:30;99978.97;;;11.18;74.82
12360;BME280;6244;51.460;7.090;2023-03-18T05:20:28;99984.31;;;11.16;74.70
12360;BME280;6244;51.460;7.090;2023-03-18T05:25:25;99991.63;;;11.11;74.59
12360;BME280;6244;51.460;7.090;2023-03-18T05:30:21;99984.84;;;11.22;74.37
12360;BME280;6244;51.460;7.090;2023-03-18T05:35:18;99985.06;;;11.18;74.66
12360;BME280;6244;51.460;7.090;2023-03-18T05:40:16;99988.63;;;11.17;74.13
12360;BME280;6244;51.460;7.090;2023-03-18T05:45:12;99988.03;;;11.27;74.29
12360;BME280;6244;51.460;7.090;2023-03-18T05:50:10;100000.63;;;11.22;74.06
12360;BME280;6244;51.460;7.090;2023-03-18T05:55:08;100007.00;;;11.17;73.93
12360;BME280;6244;51.460;7.090;2023-03-18T06:00:10;100015.84;;;11.16;74.19
12360;BME280;6244;51.460;7.090;2023-03-18T06:05:08;100019.03;;;11.07;74.33
12360;BME280;6244;51.460;7.090;2023-03-18T06:10:05;100025.47;;;11.16;74.37
12360;BME280;6244;51.460;7.090;2023-03-18T06:15:03;100030.19;;;11.11;74.11
12360;BME280;6244;51.460;7.090;2023-03-18T06:20:01;100033.44;;;11.14;74.40
12360;BME280;6244;51.460;7.090;2023-03-18T06:24:57;100028.41;;;11.11;74.43
12360;BME280;6244;51.460;7.090;2023-03-18T06:29:54;100035.22;;;11.14;74.13
12360;BME280;6244;51.460;7.090;2023-03-18T06:34:51;100038.06;;;11.11;74.30
12360;BME280;6244;51.460;7.090;2023-03-18T06:39:48;100043.22;;;11.12;74.46
12360;BME280;6244;51.460;7.090;2023-03-18T06:44:45;100057.56;;;11.07;74.60
12360;BME280;6244;51.460;7.090;2023-03-18T06:49:44;100058.63;;;11.04;74.78
12360;BME280;6244;51.460;7.090;2023-03-18T06:54:42;100063.88;;;11.04;74.53
12360;BME280;6244;51.460;7.090;2023-03-18T06:59:40;100062.53;;;11.11;74.55
12360;BME280;6244;51.460;7.090;2023-03-18T07:04:36;100057.06;;;11.14;74.25
12360;BME280;6244;51.460;7.090;2023-03-18T07:09:33;100055.56;;;11.25;74.05
12360;BME280;6244;51.460;7.090;2023-03-18T07:14:30;100066.44;;;11.33;73.69
12360;BME280;6244;51.460;7.090;2023-03-18T07:19:28;100075.25;;;11.32;73.47
12360;BME280;6244;51.460;7.090;2023-03-18T07:24:26;100074.16;;;11.48;73.07
12360;BME280;6244;51.460;7.090;2023-03-18T07:29:23;100073.50;;;11.59;72.36
12360;BME280;6244;51.460;7.090;2023-03-18T07:34:19;100083.38;;;11.56;72.36
12360;BME280;6244;51.460;7.090;2023-03-18T07:39:18;100083.22;;;11.98;71.47
12360;BME280;6244;51.460;7.090;2023-03-18T07:44:15;100080.44;;;12.27;70.11
12360;BME280;6244;51.460;7.090;2023-03-18T07:49:11;100093.41;;;12.81;68.07
12360;BME280;6244;51.460;7.090;2023-03-18T07:54:08;100097.59;;;13.09;66.73
12360;BME280;6244;51.460;7.090;2023-03-18T07:59:06;100100.03;;;13.61;64.73
12360;BME280;6244;51.460;7.090;2023-03-18T08:04:03;100094.81;;;13.96;63.09
12360;BME280;6244;51.460;7.090;2023-03-18T08:09:00;100101.94;;;14.42;61.98
12360;BME280;6244;51.460;7.090;2023-03-18T08:13:57;100101.16;;;14.53;60.73
12360;BME280;6244;51.460;7.090;2023-03-18T08:18:56;100111.94;;;14.61;60.61
12360;BME280;6244;51.460;7.090;2023-03-18T08:23:52;100110.44;;;15.14;58.18
12360;BME280;6244;51.460;7.090;2023-03-18T08:28:49;100114.03;;;15.24;58.29
12360;BME280;6244;51.460;7.090;2023-03-18T08:33:45;100120.34;;;16.10;56.59
12360;BME280;6244;51.460;7.090;2023-03-18T08:38:45;100131.59;;;17.07;52.17
12360;BME280;6244;51.460;7.090;2023-03-18T08:43:41;100123.72;;;16.33;54.84
12360;BME280;6244;51.460;7.090;2023-03-18T08:48:39;100127.41;;;18.52;49.44
12360;BME280;6244;51.460;7.090;2023-03-18T08:53:36;100141.25;;;18.07;48.79
12360;BME280;6244;51.460;7.090;2023-03-18T08:58:34;100140.28;;;17.89;48.36
12360;BME280;6244;51.460;7.090;2023-03-18T09:03:31;100143.97;;;16.02;53.42
12360;BME280;6244;51.460;7.090;2023-03-18T09:08:28;100139.47;;;15.48;56.13
12360;BME280;6244;51.460;7.090;2023-03-18T09:13:25;100143.53;;;14.74;58.58
12360;BME280;6244;51.460;7.090;2023-03-18T09:18:23;100138.91;;;15.33;56.69
12360;BME280;6244;51.460;7.090;2023-03-18T09:23:20;100151.63;;;15.17;57.02
12360;BME280;6244;51.460;7.090;2023-03-18T09:28:16;100145.84;;;15.68;55.40
12360;BME280;6244;51.460;7.090;2023-03-18T09:33:13;100149.59;;;15.65;55.01
12360;BME280;6244;51.460;7.090;2023-03-18T09:38:15;100158.50;;;16.07;53.78
12360;BME280;6244;51.460;7.090;2023-03-18T09:43:20;100149.09;;;17.59;48.99
12360;BME280;6244;51.460;7.090;2023-03-18T09:48:51;100134.94;;;18.57;46.28
12360;BME280;6244;51.460;7.090;2023-03-18T09:53:55;100151.06;;;19.49;43.33
12360;BME280;6244;51.460;7.090;2023-03-18T09:58:57;100148.91;;;20.07;42.31
12360;BME280;6244;51.460;7.090;2023-03-18T10:04:01;100150.56;;;20.08;41.30
12360;BME280;6244;51.460;7.090;2023-03-18T10:09:07;100150.09;;;20.84;39.30
12360;BME280;6244;51.460;7.090;2023-03-18T10:14:15;100150.91;;;23.72;33.36
12360;BME280;6244;51.460;7.090;2023-03-18T10:19:13;100155.56;;;23.79;33.00
12360;BME280;6244;51.460;7.090;2023-03-18T10:24:21;100148.16;;;25.39;29.78
12360;BME280;6244;51.460;7.090;2023-03-18T10:29:28;100143.97;;;22.67;34.69
12360;BME280;6244;51.460;7.090;2023-03-18T10:34:32;100152.44;;;23.67;33.43
12360;BME280;6244;51.460;7.090;2023-03-18T10:40:08;100138.47;;;25.09;30.85
12360;BME280;6244;51.460;7.090;2023-03-18T10:51:49;100133.81;;;27.18;27.89
12360;BME280;6244;51.460;7.090;2023-03-18T10:57:14;100139.84;;;26.99;26.94
12360;BME280;6244;51.460;7.090;2023-03-18T11:02:40;100139.66;;;23.30;32.65
12360;BME280;6244;51.460;7.090;2023-03-18T11:07:58;100122.41;;;26.39;28.79
12360;BME280;6244;51.460;7.090;2023-03-18T11:12:58;100108.38;;;27.88;27.14
12360;BME280;6244;51.460;7.090;2023-03-18T11:17:58;100117.69;;;23.42;31.79
12360;BME280;6244;51.460;7.090;2023-03-18T11:23:03;100115.66;;;21.75;35.71
12360;BME280;6244;51.460;7.090;2023-03-18T11:28:18;100103.34;;;22.72;34.77
12360;BME280;6244;51.460;7.090;2023-03-18T11:33:16;100111.91;;;22.51;34.29
12360;BME280;6244;51.460;7.090;2023-03-18T11:38:19;100115.22;;;22.85;33.80
12360;BME280;6244;51.460;7.090;2023-03-18T11:43:19;100106.56;;;22.35;34.57
12360;BME280;6244;51.460;7.090;2023-03-18T11:48:27;100112.38;;;22.87;33.55
12360;BME280;6244;51.460;7.090;2023-03-18T11:53:30;100111.84;;;21.86;34.95
12360;BME280;6244;51.460;7.090;2023-03-18T11:58:47;100116.78;;;21.64;36.96
12360;BME280;6244;51.460;7.090;2023-03-18T12:09:13;100110.06;;;19.69;39.35
12360;BME280;6244;51.460;7.090;2023-03-18T12:14:17;100113.38;;;20.78;36.93
12360;BME280;6244;51.460;7.090;2023-03-18T12:25:06;100109.47;;;20.29;38.13
12360;BME280;6244;51.460;7.090;2023-03-18T12:30:31;100091.25;;;19.98;38.94
12360;BME280;6244;51.460;7.090;2023-03-18T12:35:39;100108.09;;;19.44;40.06
12360;BME280;6244;51.460;7.090;2023-03-18T12:40:52;100112.41;;;19.45;40.67
12360;BME280;6244;51.460;7.090;2023-03-18T12:51:02;100102.34;;;17.68;43.39
12360;BME280;6244;51.460;7.090;2023-03-18T12:56:05;100101.22;;;17.60;43.58
12360;BME280;6244;51.460;7.090;2023-03-18T13:01:07;100090.94;;;17.77;43.59
12360;BME280;6244;51.460;7.090;2023-03-18T13:06:17;100071.41;;;17.78;43.95
12360;BME280;6244;51.460;7.090;2023-03-18T13:11:28;100081.31;;;18.14;44.29
12360;BME280;6244;51.460;7.090;2023-03-18T13:16:29;100075.56;;;18.48;42.51
12360;BME280;6244;51.460;7.090;2023-03-18T13:21:30;100081.47;;;18.03;43.24
12360;BME280;6244;51.460;7.090;2023-03-18T13:26:37;100082.97;;;17.96;43.37
12360;BME280;6244;51.460;7.090;2023-03-18T13:31:46;100079.91;;;18.30;41.06
12360;BME280;6244;51.460;7.090;2023-03-18T13:37:11;100075.16;;;18.04;41.98
12360;BME280;6244;51.460;7.090;2023-03-18T13:42:24;100067.06;;;17.77;42.54
12360;BME280;6244;51.460;7.090;2023-03-18T13:47:22;100073.13;;;17.48;42.96
12360;BME280;6244;51.460;7.090;2023-03-18T13:52:28;100066.06;;;17.18;43.85
12360;BME280;6244;51.460;7.090;2023-03-18T13:57:46;100054.00;;;17.45;44.78
12360;BME280;6244;51.460;7.090;2023-03-18T14:02:43;100044.50;;;17.42;41.09
12360;BME280;6244;51.460;7.090;2023-03-18T14:07:46;100033.16;;;17.30;41.93
12360;BME280;6244;51.460;7.090;2023-03-18T14:12:44;100029.44;;;17.52;42.17
12360;BME280;6244;51.460;7.090;2023-03-18T14:17:46;100025.66;;;17.55;43.13
12360;BME280;6244;51.460;7.090;2023-03-18T14:22:46;100022.00;;;17.27;43.87
12360;BME280;6244;51.460;7.090;2023-03-18T14:27:44;100031.28;;;17.02;45.23
12360;BME280;6244;51.460;7.090;2023-03-18T14:32:41;100035.38;;;16.76;45.95
12360;BME280;6244;51.460;7.090;2023-03-18T14:37:53;100020.47;;;16.75;46.22
12360;BME280;6244;51.460;7.090;2023-03-18T14:42:55;100037.56;;;16.70;46.76
12360;BME280;6244;51.460;7.090;2023-03-18T14:47:55;100080.03;;;16.18;51.00
12360;BME280;6244;51.460;7.090;2023-03-18T14:52:58;100066.91;;;14.05;73.00
12360;BME280;6244;51.460;7.090;2023-03-18T14:57:57;100083.69;;;13.32;76.25
12360;BME280;6244;51.460;7.090;2023-03-18T15:02:59;100094.44;;;13.29;74.26
12360;BME280;6244;51.460;7.090;2023-03-18T15:07:57;100095.50;;;13.01;73.12
12360;BME280;6244;51.460;7.090;2023-03-18T15:12:59;100087.19;;;12.94;76.52
12360;BME280;6244;51.460;7.090;2023-03-18T15:18:04;100084.34;;;12.98;77.09
12360;BME280;6244;51.460;7.090;2023-03-18T15:23:07;100078.31;;;13.21;76.73
12360;BME280;6244;51.460;7.090;2023-03-18T15:28:05;100080.78;;;13.48;75.92
12360;BME280;6244;51.460;7.090;2023-03-18T15:33:04;100066.88;;;13.70;73.13
12360;BME280;6244;51.460;7.090;2023-03-18T15:38:13;100074.31;;;14.00;67.53
12360;BME280;6244;51.460;7.090;2023-03-18T15:43:16;100067.06;;;14.15;66.17
12360;BME280;6244;51.460;7.090;2023-03-18T15:48:20;100064.53;;;14.71;64.81
12360;BME280;6244;51.460;7.090;2023-03-18T15:53:22;100065.16;;;14.52;64.61
12360;BME280;6244;51.460;7.090;2023-03-18T15:58:22;100063.72;;;15.04;66.23
12360;BME280;6244;51.460;7.090;2023-03-18T16:03:20;100061.72;;;15.50;64.21
12360;BME280;6244;51.460;7.090;2023-03-18T16:08:19;100057.47;;;15.70;66.81
12360;BME280;6244;51.460;7.090;2023-03-18T16:13:20;100059.50;;;15.78;67.14
12360;BME280;6244;51.460;7.090;2023-03-18T16:18:19;100064.41;;;15.82;67.24
12360;BME280;6244;51.460;7.090;2023-03-18T16:23:16;100060.13;;;15.70;67.02
12360;BME280;6244;51.460;7.090;2023-03-18T16:28:20;100059.03;;;15.73;67.11
12360;BME280;6244;51.460;7.090;2023-03-18T16:33:18;100061.16;;;15.90;66.57
12360;BME280;6244;51.460;7.090;2023-03-18T16:38:16;100064.72;;;16.00;66.88
12360;BME280;6244;51.460;7.090;2023-03-18T16:43:15;100062.13;;;15.89;66.33
12360;BME280;6244;51.460;7.090;2023-03-18T16:48:15;100066.66;;;15.87;66.65
12360;BME280;6244;51.460;7.090;2023-03-18T16:53:17;100064.78;;;15.78;66.84
12360;BME280;6244;51.460;7.090;2023-03-18T16:58:17;100069.03;;;15.69;67.42
12360;BME280;6244;51.460;7.090;2023-03-18T17:03:17;100078.75;;;15.57;68.22
12360;BME280;6244;51.460;7.090;2023-03-18T17:08:15;100075.81;;;15.40;68.24
12360;BME280;6244;51.460;7.090;2023-03-18T17:13:16;100073.78;;;15.32;68.30
12360;BME280;6244;51.460;7.090;2023-03-18T17:18:16;100077.63;;;15.28;68.21
12360;BME280;6244;51.460;7.090;2023-03-18T17:23:15;100083.88;;;15.27;68.11
12360;BME280;6244;51.460;7.090;2023-03-18T17:28:17;100080.16;;;15.18;68.33
12360;BME280;6244;51.460;7.090;2023-03-18T17:33:20;100084.84;;;15.04;67.84
12360;BME280;6244;51.460;7.090;2023-03-18T17:38:18;100081.84;;;14.86;67.58
12360;BME280;6244;51.460;7.090;2023-03-18T17:43:23;100084.59;;;14.84;67.47
12360;BME280;6244;51.460;7.090;2023-03-18T17:48:24;100091.19;;;14.67;67.27
12360;BME280;6244;51.460;7.090;2023-03-18T17:53:23;100091.44;;;14.64;66.95
12360;BME280;6244;51.460;7.090;2023-03-18T17:58:23;100093.69;;;14.47;67.25
12360;BME280;6244;51.460;7.090;2023-03-18T18:03:23;100100.41;;;14.51;66.97
12360;BME280;6244;51.460;7.090;2023-03-18T18:08:22;100104.69;;;14.40;66.69
12360;BME280;6244;51.460;7.090;2023-03-18T18:13:21;100108.09;;;13.95;67.05
12360;BME280;6244;51.460;7.090;2023-03-18T18:18:19;100108.09;;;13.71;69.05
12360;BME280;6244;51.460;7.090;2023-03-18T18:23:26;100111.09;;;13.66;69.41
12360;BME280;6244;51.460;7.090;2023-03-18T18:28:28;100104.41;;;13.73;68.57
12360;BME280;6244;51.460;7.090;2023-03-18T18:33:27;100117.94;;;13.69;68.27
12360;BME280;6244;51.460;7.090;2023-03-18T18:38:25;100121.09;;;13.61;68.50
12360;BME280;6244;51.460;7.090;2023-03-18T18:43:23;100124.66;;;13.73;68.32
12360;BME280;6244;51.460;7.090;2023-03-18T18:48:23;100122.59;;;13.65;67.84
12360;BME280;6244;51.460;7.090;2023-03-18T18:53:25;100122.56;;;13.16;68.88
12360;BME280;6244;51.460;7.090;2023-03-18T18:58:26;100132.47;;;13.12;69.77
12360;BME280;6244;51.460;7.090;2023-03-18T19:03:24;100130.97;;;13.46;68.65
12360;BME280;6244;51.460;7.090;2023-03-18T19:08:25;100126.72;;;13.57;67.74
12360;BME280;6244;51.460;7.090;2023-03-18T19:13:22;100125.53;;;13.61;67.52
12360;BME280;6244;51.460;7.090;2023-03-18T19:18:21;100124.00;;;13.45;67.11
12360;BME280;6244;51.460;7.090;2023-03-18T19:23:22;100136.72;;;13.51;67.04
12360;BME280;6244;51.460;7.090;2023-03-18T19:28:23;100133.59;;;13.46;66.42
12360;BME280;6244;51.460;7.090;2023-03-18T19:33:35;100147.50;;;13.48;66.25
12360;BME280;6244;51.460;7.090;2023-03-18T19:38:32;100153.34;;;13.41;66.01
12360;BME280;6244;51.460;7.090;2023-03-18T19:43:30;100151.88;;;13.24;66.35
12360;BME280;6244;51.460;7.090;2023-03-18T19:48:27;100152.91;;;13.09;66.39
12360;BME280;6244;51.460;7.090;2023-03-18T19:53:25;100161.16;;;12.91;66.49
12360;BME280;6244;51.460;7.090;2023-03-18T19:58:24;100154.28;;;12.89;67.09
12360;BME280;6244;51.460;7.090;2023-03-18T20:03:23;100163.44;;;12.71;67.29
12360;BME280;6244;51.460;7.090;2023-03-18T20:08:19;100163.53;;;12.56;67.36
12360;BME280;6244;51.460;7.090;2023-03-18T20:13:16;100168.56;;;12.47;67.18
12360;BME280;6244;51.460;7.090;2023-03-18T20:18:14;100171.19;;;12.47;66.79
12360;BME280;6244;51.460;7.090;2023-03-18T20:23:19;100173.31;;;12.54;65.97
12360;BME280;6244;51.460;7.090;2023-03-18T20:28:18;100169.28;;;12.49;66.07
12360;BME280;6244;51.460;7.090;2023-03-18T20:33:15;100171.31;;;12.45;65.37
12360;BME280;6244;51.460;7.090;2023-03-18T20:38:15;100171.41;;;12.44;65.38
12360;BME280;6244;51.460;7.090;2023-03-18T20:43:14;100177.16;;;12.36;64.63
12360;BME280;6244;51.460;7.090;2023-03-18T20:48:11;100180.50;;;11.98;64.60
12360;BME280;6244;51.460;7.090;2023-03-18T20:53:12;100188.00;;;12.04;65.13
12360;BME280;6244;51.460;7.090;2023-03-18T20:58:14;100176.56;;;12.05;64.00
12360;BME280;6244;51.460;7.090;2023-03-18T21:03:22;100173.16;;;12.30;64.06
12360;BME280;6244;51.460;7.090;2023-03-18T21:08:19;100187.53;;;12.64;63.24
12360;BME280;6244;51.460;7.090;2023-03-18T21:13:24;100182.81;;;12.57;62.67
12360;BME280;6244;51.460;7.090;2023-03-18T21:18:22;100193.84;;;12.22;62.37
12360;BME280;6244;51.460;7.090;2023-03-18T21:23:20;100191.66;;;12.02;62.39
12360;BME280;6244;51.460;7.090;2023-03-18T21:28:21;100193.28;;;12.04;61.89
12360;BME280;6244;51.460;7.090;2023-03-18T21:33:20;100188.84;;;12.05;62.34
12360;BME280;6244;51.460;7.090;2023-03-18T21:38:17;100183.13;;;11.98;61.94
12360;BME280;6244;51.460;7.090;2023-03-18T21:43:25;100181.34;;;11.99;62.65
12360;BME280;6244;51.460;7.090;2023-03-18T21:48:22;100173.56;;;12.24;62.71
12360;BME280;6244;51.460;7.090;2023-03-18T21:53:20;100178.22;;;12.33;62.63
12360;BME280;6244;51.460;7.090;2023-03-18T21:58:19;100176.47;;;12.47;61.83
12360;BME280;6244;51.460;7.090;2023-03-18T22:03:19;100175.47;;;12.35;61.88
12360;BME280;6244;51.460;7.090;2023-03-18T22:08:16;100174.28;;;12.26;61.80
12360;BME280;6244;51.460;7.090;2023-03-18T22:13:16;100178.81;;;12.24;62.21
12360;BME280;6244;51.460;7.090;2023-03-18T22:18:13;100171.44;;;12.17;62.20
12360;BME280;6244;51.460;7.090;2023-03-18T22:23:14;100168.16;;;11.86;61.97
12360;BME280;6244;51.460;7.090;2023-03-18T22:28:11;100177.72;;;11.73;62.57
12360;BME280;6244;51.460;7.090;2023-03-18T22:33:18;100186.22;;;11.21;64.07
12360;BME280;6244;51.460;7.090;2023-03-18T22:38:19;100182.47;;;11.25;65.06
12360;BME280;6244;51.460;7.090;2023-03-18T22:43:24;100185.44;;;11.62;64.41
12360;BME280;6244;51.460;7.090;2023-03-18T22:48:22;100180.09;;;11.49;64.64
12360;BME280;6244;51.460;7.090;2023-03-18T22:53:21;100179.53;;;11.58;63.03
12360;BME280;6244;51.460;7.090;2023-03-18T22:58:22;100182.19;;;11.44;64.03
12360;BME280;6244;51.460;7.090;2023-03-18T23:03:20;100181.91;;;11.48;63.36
12360;BME280;6244;51.460;7.090;2023-03-18T23:08:17;100186.97;;;11.37;63.36
12360;BME280;6244;51.460;7.090;2023-03-18T23:13:17;100186.09;;;11.51;63.05
12360;BME280;6244;51.460;7.090;2023-03-18T23:18:15;100176.13;;;11.85;63.01
12360;BME280;6244;51.460;7.090;2023-03-18T23:23:13;100177.81;;;12.13;62.73
12360;BME280;6244;51.460;7.090;2023-03-18T23:28:10;100177.41;;;12.06;62.51
12360;BME280;6244;51.460;7.090;2023-03-18T23:33:08;100188.75;;;12.07;62.81
12360;BME280;6244;51.460;7.090;2023-03-18T23:38:05;100197.63;;;11.63;nan
12360;BME280;6244;51.460;7.090;2023-03-18T23:43:02;100203.56;;;11.52;63.12
12360;BME280;6244;51.460;7.090;2023-03-18T23:47:58;100195.34;;;11.30;65.08
12360;BME280;6244;51.460;7.090;2023-03-18T23:52:56;100192.69;;;11.01;66.91
12360;BME280;6244;51.460;7.090;2023-03-18T23:57:54;100185.28;;;10.94;67.68
